createdAt,value
2022-10-21T00:00:41.199Z,7.47
2022-10-21T00:03:08.554Z,7.63
2022-10-21T00:05:35.751Z,8.80
2022-10-21T00:08:02.990Z,7.93
2022-10-21T00:10:30.311Z,7.20
2022-10-21T00:12:57.547Z,6.83
2022-10-21T00:15:24.683Z,11.70
2022-10-21T00:17:51.875Z,8.40
2022-10-21T00:20:19.662Z,9.00
2022-10-21T00:22:47.232Z,7.47
2022-10-21T00:25:14.978Z,7.93
2022-10-21T00:27:42.190Z,7.10
2022-10-21T00:30:12.516Z,8.20
2022-10-21T00:32:40.052Z,7.30
2022-10-21T00:35:07.749Z,6.63
2022-10-21T00:37:35.101Z,9.10
2022-10-21T00:40:02.401Z,6.13
2022-10-21T00:42:42.145Z,6.77
2022-10-21T00:45:24.267Z,6.37
2022-10-21T00:48:08.696Z,9.30
2022-10-21T00:50:51.834Z,7.17
2022-10-21T00:53:19.832Z,6.57
2022-10-21T00:55:59.985Z,7.57
2022-10-21T00:58:31.935Z,6.47
2022-10-21T01:01:02.671Z,7.00
2022-10-21T01:03:34.058Z,7.40
2022-10-21T01:06:09.153Z,7.83
2022-10-21T01:08:37.737Z,6.27
2022-10-21T01:11:15.327Z,7.13
2022-10-21T01:14:03.352Z,6.37
2022-10-21T01:16:48.072Z,6.87
2022-10-21T01:19:42.732Z,8.97
2022-10-21T01:22:52.890Z,6.37
2022-10-21T01:25:56.301Z,7.20
2022-10-21T01:29:09.264Z,11.27
2022-10-21T01:32:25.510Z,6.37
2022-10-21T01:35:02.905Z,7.07
2022-10-21T01:37:57.142Z,6.77
2022-10-21T01:40:48.271Z,8.97
2022-10-21T01:43:49.446Z,7.83
2022-10-21T01:46:47.453Z,7.43
2022-10-21T01:49:40.188Z,6.50
2022-10-21T01:52:08.970Z,6.80
2022-10-21T01:54:43.388Z,6.27
2022-10-21T01:57:16.003Z,7.07
2022-10-21T01:59:46.562Z,7.57
2022-10-21T02:02:16.265Z,6.77
2022-10-21T02:04:47.541Z,7.03
2022-10-21T02:07:14.771Z,7.80
2022-10-21T02:09:42.052Z,7.07
2022-10-21T02:12:10.680Z,6.20
2022-10-21T02:14:47.402Z,8.53
2022-10-21T02:17:21.075Z,6.23
2022-10-21T02:19:48.860Z,7.50
2022-10-21T02:22:22.833Z,9.63
2022-10-21T02:25:08.487Z,5.80
2022-10-21T02:27:36.101Z,9.97
2022-10-21T02:30:03.843Z,6.60
2022-10-21T02:33:01.403Z,6.00
2022-10-21T02:35:39.824Z,6.63
2022-10-21T02:38:24.821Z,6.77
2022-10-21T02:40:57.050Z,7.03
2022-10-21T02:43:52.106Z,7.37
2022-10-21T02:46:19.406Z,5.83
2022-10-21T02:48:49.020Z,6.93
2022-10-21T02:51:16.962Z,7.33
2022-10-21T02:53:44.319Z,8.77
2022-10-21T02:56:11.493Z,7.13
2022-10-21T02:58:38.579Z,6.53
2022-10-21T03:01:05.967Z,8.13
2022-10-21T03:03:33.146Z,6.20
2022-10-21T03:06:00.283Z,6.97
2022-10-21T03:08:27.582Z,5.90
2022-10-21T03:10:55.194Z,6.80
2022-10-21T03:13:23.097Z,7.73
2022-10-21T03:15:51.209Z,6.80
2022-10-21T03:18:19.440Z,6.37
2022-10-21T03:20:52.052Z,8.30
2022-10-21T03:23:20.969Z,8.90
2022-10-21T03:25:48.154Z,6.10
2022-10-21T03:28:15.950Z,8.87
2022-10-21T03:30:43.144Z,8.70
2022-10-21T03:33:10.307Z,8.43
2022-10-21T03:35:37.605Z,10.97
2022-10-21T03:38:04.975Z,11.67
2022-10-21T03:40:32.090Z,32.77
2022-10-21T03:43:00.102Z,37.97
2022-10-21T03:45:27.623Z,20.83
2022-10-21T03:47:54.964Z,13.33
2022-10-21T03:50:26.029Z,26.20
2022-10-21T03:52:54.399Z,15.60
2022-10-21T03:55:22.262Z,10.17
2022-10-21T03:57:49.525Z,10.30
2022-10-21T04:00:17.275Z,8.53
2022-10-21T04:02:44.432Z,11.67
2022-10-21T04:05:13.758Z,14.73
2022-10-21T04:07:41.440Z,14.27
2022-10-21T04:10:09.764Z,10.43
2022-10-21T04:12:37.425Z,11.40
2022-10-21T04:15:09.553Z,14.50
2022-10-21T04:17:36.866Z,9.10
2022-10-21T04:20:04.885Z,7.90
2022-10-21T04:22:32.118Z,14.73
2022-10-21T04:25:00.965Z,9.33
2022-10-21T04:27:31.188Z,10.60
2022-10-21T04:29:58.355Z,8.80
2022-10-21T04:32:25.622Z,7.47
2022-10-21T04:34:52.787Z,6.87
2022-10-21T04:37:20.092Z,14.73
2022-10-21T04:39:47.280Z,18.97
2022-10-21T04:42:14.660Z,14.27
2022-10-21T04:44:41.982Z,7.43
2022-10-21T04:47:09.244Z,8.93
2022-10-21T04:49:36.519Z,10.07
2022-10-21T04:52:05.763Z,10.17
2022-10-21T04:54:32.920Z,8.70
2022-10-21T04:57:00.300Z,10.70
2022-10-21T04:59:27.444Z,11.47
2022-10-21T05:01:54.722Z,9.53
2022-10-21T05:04:21.930Z,10.27
2022-10-21T05:06:49.062Z,10.07
2022-10-21T05:09:16.475Z,24.63
2022-10-21T05:11:43.654Z,26.70
2022-10-21T05:14:10.866Z,20.20
2022-10-21T05:16:38.071Z,17.60
2022-10-21T05:19:05.326Z,18.60
2022-10-21T05:21:32.513Z,15.57
2022-10-21T05:23:59.677Z,13.50
2022-10-21T05:26:26.810Z,13.27
2022-10-21T05:28:54.016Z,19.27
2022-10-21T05:31:21.201Z,21.93
2022-10-21T05:33:48.403Z,13.60
2022-10-21T05:36:16.830Z,12.70
2022-10-21T05:38:45.089Z,13.83
2022-10-21T05:41:12.442Z,13.47
2022-10-21T05:43:39.648Z,13.37
2022-10-21T05:46:06.953Z,12.30
2022-10-21T05:48:35.178Z,11.63
2022-10-21T05:51:03.719Z,12.10
2022-10-21T05:53:30.968Z,17.67
2022-10-21T05:56:05.270Z,12.97
2022-10-21T05:58:35.101Z,11.00
2022-10-21T06:01:02.908Z,27.47
2022-10-21T06:03:33.113Z,29.70
2022-10-21T06:06:04.280Z,22.90
2022-10-21T06:08:35.332Z,11.83
2022-10-21T06:11:05.816Z,12.43
2022-10-21T06:13:33.807Z,10.73
2022-10-21T06:16:01.639Z,9.93
2022-10-21T06:18:32.329Z,9.70
2022-10-21T06:20:59.683Z,8.53
2022-10-21T06:23:27.686Z,12.07
2022-10-21T06:26:02.809Z,12.53
2022-10-21T06:28:33.606Z,11.93
2022-10-21T06:31:01.541Z,9.23
2022-10-21T06:33:29.944Z,11.10
2022-10-21T06:35:57.403Z,8.33
2022-10-21T06:38:25.868Z,10.37
2022-10-21T06:41:00.725Z,15.10
2022-10-21T06:43:28.242Z,14.03
2022-10-21T06:46:09.645Z,10.53
2022-10-21T06:48:38.006Z,7.33
2022-10-21T06:51:10.300Z,12.47
2022-10-21T06:53:39.402Z,9.67
2022-10-21T06:56:10.696Z,11.33
2022-10-21T06:58:43.369Z,9.80
2022-10-21T07:01:27.629Z,10.67
2022-10-21T07:04:04.560Z,12.70
2022-10-21T07:09:00.621Z,11.43
2022-10-21T07:11:28.459Z,9.03
2022-10-21T07:13:56.517Z,9.60
2022-10-21T07:16:31.633Z,12.90
2022-10-21T07:18:59.119Z,12.30
2022-10-21T07:21:29.771Z,15.53
2022-10-21T07:23:59.642Z,17.13
2022-10-21T07:26:30.952Z,15.53
2022-10-21T07:28:59.306Z,17.77
2022-10-21T07:31:29.227Z,21.33
2022-10-21T07:33:56.837Z,16.20
2022-10-21T07:36:28.942Z,18.37
2022-10-21T07:39:01.310Z,25.23
2022-10-21T07:41:40.208Z,18.70
2022-10-21T07:44:08.976Z,19.00
2022-10-21T07:46:39.472Z,19.50
2022-10-21T07:49:07.952Z,19.07
2022-10-21T07:51:35.337Z,17.70
2022-10-21T07:54:03.089Z,16.97
2022-10-21T07:56:38.887Z,19.63
2022-10-21T07:59:12.454Z,20.13
2022-10-21T08:01:42.026Z,23.57
2022-10-21T08:04:12.030Z,22.87
2022-10-21T08:06:39.539Z,23.67
2022-10-21T08:09:18.093Z,23.60
2022-10-21T08:11:45.903Z,27.40
2022-10-21T08:14:13.679Z,21.50
2022-10-21T08:16:42.097Z,26.13
2022-10-21T08:19:17.973Z,26.37
2022-10-21T08:21:45.409Z,34.23
2022-10-21T08:24:13.073Z,30.70
2022-10-21T08:26:40.218Z,27.50
2022-10-21T08:29:07.585Z,22.83
2022-10-21T08:31:34.908Z,23.63
2022-10-21T08:34:02.033Z,21.63
2022-10-21T08:36:29.302Z,25.23
2022-10-21T08:38:57.692Z,23.23
2022-10-21T08:41:27.795Z,22.53
2022-10-21T08:44:02.063Z,23.83
2022-10-21T08:46:39.683Z,24.67
2022-10-21T08:50:01.989Z,20.90
2022-10-21T08:52:42.460Z,20.27
2022-10-21T08:55:22.316Z,22.07
2022-10-21T08:57:51.241Z,19.50
2022-10-21T09:00:27.643Z,21.83
2022-10-21T09:03:26.325Z,17.23
2022-10-21T09:06:00.776Z,20.10
2022-10-21T09:08:56.605Z,18.33
2022-10-21T09:11:57.777Z,23.27
2022-10-21T09:15:18.964Z,20.33
2022-10-21T09:17:58.092Z,22.37
2022-10-21T09:20:45.264Z,23.43
2022-10-21T09:23:37.238Z,23.23
2022-10-21T09:26:42.916Z,21.10
2022-10-21T09:29:42.827Z,20.17
2022-10-21T09:32:18.969Z,19.63
2022-10-21T09:35:15.316Z,23.23
2022-10-21T09:37:50.383Z,17.27
2022-10-21T09:40:29.940Z,20.10
2022-10-21T09:43:00.015Z,18.67
2022-10-21T09:45:39.076Z,23.97
2022-10-21T09:48:18.222Z,20.23
2022-10-21T09:51:01.103Z,22.17
2022-10-21T09:53:49.971Z,19.80
2022-10-21T09:56:39.363Z,19.63
2022-10-21T09:59:11.854Z,18.83
2022-10-21T10:01:42.710Z,22.27
2022-10-21T10:04:32.802Z,26.00
2022-10-21T10:07:26.312Z,24.77
2022-10-21T10:09:54.283Z,22.47
2022-10-21T10:12:28.129Z,19.70
2022-10-21T10:14:56.026Z,25.07
2022-10-21T10:17:33.404Z,22.07
2022-10-21T10:20:06.368Z,21.70
2022-10-21T10:22:38.953Z,18.07
2022-10-21T10:25:21.305Z,18.63
2022-10-21T10:28:09.936Z,17.07
2022-10-21T10:30:42.901Z,17.87
2022-10-21T10:33:16.647Z,14.70
2022-10-21T10:35:54.696Z,16.70
2022-10-21T10:38:51.998Z,19.93
2022-10-21T10:41:19.804Z,18.53
2022-10-21T10:43:53.113Z,16.47
2022-10-21T10:46:30.827Z,19.13
2022-10-21T10:49:07.249Z,17.10
2022-10-21T10:51:36.161Z,18.70
2022-10-21T10:54:28.286Z,19.43
2022-10-21T10:57:34.182Z,19.10
2022-10-21T11:00:18.720Z,19.57
2022-10-21T11:03:02.623Z,17.23
2022-10-21T11:05:50.805Z,16.23
2022-10-21T11:08:42.272Z,18.40
2022-10-21T11:11:44.963Z,17.30
2022-10-21T11:14:21.848Z,15.20
2022-10-21T11:17:12.522Z,16.57
2022-10-21T11:20:15.150Z,18.40
2022-10-21T11:25:53.109Z,17.40
2022-10-21T11:28:56.026Z,18.17
2022-10-21T11:32:14.245Z,17.60
2022-10-21T11:35:18.013Z,16.53
2022-10-21T11:38:30.033Z,14.90
2022-10-21T11:41:32.513Z,22.03
2022-10-21T11:44:39.777Z,19.03
2022-10-21T11:47:30.667Z,20.97
2022-10-21T11:53:10.046Z,17.10
2022-10-21T11:56:41.658Z,18.97
2022-10-21T11:59:54.081Z,19.07
2022-10-21T12:02:42.765Z,18.00
2022-10-21T12:05:35.055Z,18.17
2022-10-21T12:08:51.644Z,17.63
2022-10-21T12:11:54.799Z,17.17
2022-10-21T12:14:34.024Z,15.70
2022-10-21T12:17:09.561Z,20.50
2022-10-21T12:19:38.054Z,18.17
2022-10-21T12:22:05.990Z,19.63
2022-10-21T12:25:14.622Z,17.77
2022-10-21T12:27:53.317Z,16.23
2022-10-21T12:30:36.863Z,16.07
2022-10-21T12:33:16.477Z,17.83
2022-10-21T12:36:11.625Z,17.43
2022-10-21T12:38:49.561Z,16.50
2022-10-21T12:41:33.719Z,16.93
2022-10-21T12:44:03.874Z,20.20
2022-10-21T12:46:33.676Z,18.00
2022-10-21T12:49:10.701Z,18.97
2022-10-21T12:51:39.316Z,20.03
2022-10-21T12:54:16.473Z,19.40
2022-10-21T12:56:49.454Z,17.50
2022-10-21T12:59:42.642Z,17.20
2022-10-21T13:02:24.837Z,15.23
2022-10-21T13:04:57.471Z,15.37
2022-10-21T13:07:33.162Z,19.50
2022-10-21T13:10:00.335Z,14.60
2022-10-21T13:12:32.283Z,18.63
2022-10-21T13:15:01.701Z,20.30
2022-10-21T13:17:49.101Z,16.83
2022-10-21T13:20:16.274Z,15.67
2022-10-21T13:22:46.800Z,18.13
2022-10-21T13:25:22.945Z,23.53
2022-10-21T13:28:13.015Z,20.83
2022-10-21T13:30:59.393Z,21.87
2022-10-21T13:33:33.826Z,21.17
2022-10-21T13:36:14.165Z,20.40
2022-10-21T13:38:54.403Z,15.30
2022-10-21T13:41:26.492Z,20.07
2022-10-21T13:44:04.353Z,15.57
2022-10-21T13:46:40.681Z,17.27
2022-10-21T13:49:33.305Z,19.13
2022-10-21T13:52:00.752Z,18.43
2022-10-21T13:54:35.377Z,18.33
2022-10-21T13:57:09.871Z,15.57
2022-10-21T13:59:37.126Z,18.90
2022-10-21T14:02:04.397Z,22.43
2022-10-21T14:04:34.164Z,18.20
2022-10-21T14:07:04.622Z,19.03
2022-10-21T14:09:45.467Z,16.73
2022-10-21T14:12:25.634Z,15.07
2022-10-21T14:14:57.906Z,15.17
2022-10-21T14:17:27.870Z,15.00
2022-10-21T14:20:06.666Z,16.07
2022-10-21T14:22:34.611Z,13.63
2022-10-21T14:25:03.292Z,19.50
2022-10-21T14:27:35.834Z,17.53
2022-10-21T14:30:07.561Z,16.20
2022-10-21T14:32:35.421Z,16.40
2022-10-21T14:35:29.170Z,15.43
2022-10-21T14:38:03.208Z,16.50
2022-10-21T14:40:33.186Z,17.47
2022-10-21T14:43:32.948Z,13.77
2022-10-21T14:46:01.096Z,18.40
2022-10-21T14:48:38.180Z,22.63
2022-10-21T14:51:19.138Z,37.93
2022-10-21T14:53:58.602Z,18.83
2022-10-21T14:56:42.813Z,17.30
2022-10-21T14:59:41.526Z,18.87
2022-10-21T15:02:26.933Z,13.50
2022-10-21T15:05:01.751Z,14.13
2022-10-21T15:07:39.703Z,13.60
2022-10-21T15:10:17.356Z,12.73
2022-10-21T15:12:50.281Z,14.10
2022-10-21T15:15:49.711Z,11.10
2022-10-21T15:18:41.703Z,10.83
2022-10-21T15:21:13.823Z,12.40
2022-10-21T15:23:55.397Z,11.97
2022-10-21T15:26:57.891Z,15.10
2022-10-21T15:29:31.093Z,14.90
2022-10-21T15:31:58.728Z,13.73
2022-10-21T15:34:26.027Z,15.13
2022-10-21T15:36:53.317Z,14.80
2022-10-21T15:39:20.714Z,16.97
2022-10-21T15:41:52.125Z,12.27
2022-10-21T15:44:27.229Z,12.40
2022-10-21T15:46:56.674Z,12.03
2022-10-21T15:49:33.047Z,12.63
2022-10-21T15:52:00.793Z,13.03
2022-10-21T15:54:28.208Z,11.27
2022-10-21T15:56:57.709Z,13.63
2022-10-21T15:59:32.446Z,11.50
2022-10-21T16:02:00.312Z,11.70
2022-10-21T16:04:27.982Z,11.73
2022-10-21T16:06:56.080Z,10.53
2022-10-21T16:09:29.300Z,27.40
2022-10-21T16:12:00.758Z,11.33
2022-10-21T16:14:30.780Z,11.03
2022-10-21T16:16:59.476Z,11.23
2022-10-21T16:19:27.366Z,10.07
2022-10-21T16:21:55.074Z,10.30
2022-10-21T16:24:22.305Z,14.30
2022-10-21T16:26:50.323Z,11.37
2022-10-21T16:29:25.506Z,13.13
2022-10-21T16:31:53.043Z,15.00
2022-10-21T16:34:20.428Z,12.90
2022-10-21T16:36:47.999Z,15.00
2022-10-21T16:39:19.286Z,18.80
2022-10-21T16:41:46.521Z,18.60
2022-10-21T16:44:14.294Z,17.23
2022-10-21T16:46:49.536Z,19.83
2022-10-21T16:49:24.733Z,21.53
2022-10-21T16:51:53.074Z,20.53
2022-10-21T16:54:23.241Z,19.63
2022-10-21T16:56:53.308Z,20.53
2022-10-21T16:59:23.015Z,15.60
2022-10-21T17:01:50.471Z,14.53
2022-10-21T17:04:17.710Z,13.33
2022-10-21T17:06:44.979Z,13.40
2022-10-21T17:09:12.233Z,13.07
2022-10-21T17:11:40.997Z,12.77
2022-10-21T17:14:15.551Z,14.80
2022-10-21T17:16:42.891Z,13.50
2022-10-21T17:19:10.043Z,16.50
2022-10-21T17:21:37.457Z,16.33
2022-10-21T17:24:05.676Z,15.00
2022-10-21T17:26:33.435Z,16.67
2022-10-21T17:29:00.983Z,11.67
2022-10-21T17:31:30.582Z,12.10
2022-10-21T17:34:02.265Z,13.10
2022-10-21T17:36:29.484Z,12.80
2022-10-21T17:38:56.667Z,15.37
2022-10-21T17:41:24.054Z,15.40
2022-10-21T17:43:51.184Z,14.03
2022-10-21T17:46:24.816Z,12.87
2022-10-21T17:48:54.500Z,15.50
2022-10-21T17:51:23.564Z,12.00
2022-10-21T17:53:53.914Z,13.10
2022-10-21T17:56:22.688Z,13.80
2022-10-21T17:58:54.230Z,12.00
2022-10-21T18:01:25.930Z,12.77
2022-10-21T18:03:54.650Z,12.73
2022-10-21T18:06:21.874Z,16.73
2022-10-21T18:08:59.400Z,18.00
2022-10-21T18:11:28.068Z,13.17
2022-10-21T18:13:56.195Z,12.53
2022-10-21T18:16:25.179Z,13.77
2022-10-21T18:18:52.615Z,14.17
2022-10-21T18:21:23.997Z,15.70
2022-10-21T18:23:54.085Z,12.43
2022-10-21T18:26:28.803Z,13.80
2022-10-21T18:29:03.176Z,13.17
2022-10-21T18:31:34.330Z,14.70
2022-10-21T18:34:04.426Z,11.10
2022-10-21T18:36:36.485Z,14.30
2022-10-21T18:39:07.942Z,12.63
2022-10-21T18:41:36.496Z,11.53
2022-10-21T18:44:08.170Z,14.00
2022-10-21T18:46:39.273Z,15.20
2022-10-21T18:49:12.304Z,11.40
2022-10-21T18:51:40.337Z,10.87
2022-10-21T18:54:08.250Z,13.03
2022-10-21T18:56:35.628Z,13.30
2022-10-21T18:59:05.186Z,12.27
2022-10-21T19:01:32.640Z,14.40
2022-10-21T19:04:01.506Z,14.27
2022-10-21T19:06:33.139Z,12.63
2022-10-21T19:09:02.398Z,13.37
2022-10-21T19:11:31.142Z,12.13
2022-10-21T19:13:59.504Z,12.53
2022-10-21T19:16:27.250Z,15.20
2022-10-21T19:18:54.861Z,13.43
2022-10-21T19:21:23.947Z,11.90
2022-10-21T19:23:54.473Z,12.70
2022-10-21T19:26:23.391Z,11.60
2022-10-21T19:28:51.316Z,14.57
2022-10-21T19:31:19.112Z,12.60
2022-10-21T19:33:46.462Z,14.57
2022-10-21T19:36:13.643Z,12.70
2022-10-21T19:38:44.422Z,13.37
2022-10-21T19:41:22.462Z,12.90
2022-10-21T19:43:50.427Z,11.63
2022-10-21T19:46:25.519Z,13.10
2022-10-21T19:48:54.105Z,13.30
2022-10-21T19:51:25.030Z,12.43
2022-10-21T19:53:54.092Z,12.50
2022-10-21T19:56:25.720Z,14.07
2022-10-21T19:58:55.823Z,14.37
2022-10-21T20:01:26.040Z,13.23
2022-10-21T20:03:54.961Z,14.00
2022-10-21T20:06:30.269Z,12.93
2022-10-21T20:09:00.855Z,12.33
2022-10-21T20:11:30.518Z,14.20
2022-10-21T20:13:58.057Z,12.60
2022-10-21T20:16:37.025Z,13.17
2022-10-21T20:19:07.063Z,14.03
2022-10-21T20:21:36.186Z,14.13
2022-10-21T20:24:04.780Z,13.93
2022-10-21T20:26:32.130Z,13.93
2022-10-21T20:29:00.647Z,14.93
2022-10-21T20:31:28.620Z,13.13
2022-10-21T20:33:56.444Z,13.30
2022-10-21T20:36:29.637Z,12.57
2022-10-21T20:39:12.558Z,13.83
2022-10-21T20:41:40.457Z,12.93
2022-10-21T20:44:13.902Z,14.00
2022-10-21T20:46:41.049Z,15.07
2022-10-21T20:49:09.139Z,14.17
2022-10-21T20:51:40.012Z,15.47
2022-10-21T20:54:13.229Z,12.10
2022-10-21T20:56:41.640Z,12.17
2022-10-21T20:59:12.989Z,11.40
2022-10-21T21:01:47.591Z,12.07
2022-10-21T21:04:17.699Z,11.17
2022-10-21T21:06:48.655Z,11.53
2022-10-21T21:12:07.102Z,11.50
2022-10-21T21:14:34.291Z,10.93
2022-10-21T21:17:01.551Z,10.57
2022-10-21T21:19:28.817Z,9.90
2022-10-21T21:21:56.359Z,9.53
2022-10-21T21:24:23.561Z,9.03
2022-10-21T21:26:50.760Z,8.73
2022-10-21T21:29:18.131Z,8.00
2022-10-21T21:31:45.334Z,7.67
2022-10-21T21:34:12.526Z,7.87
2022-10-21T21:36:40.160Z,7.77
2022-10-21T21:39:08.950Z,6.97
2022-10-21T21:41:36.269Z,7.17
2022-10-21T21:44:05.296Z,6.80
2022-10-21T21:46:32.892Z,6.50
2022-10-21T21:49:05.433Z,6.53
2022-10-21T21:51:35.751Z,5.80
2022-10-21T21:54:05.185Z,8.97
2022-10-21T21:56:32.400Z,7.40
2022-10-21T21:58:59.618Z,6.37
2022-10-21T22:01:29.659Z,8.43
2022-10-21T22:03:58.604Z,5.97
2022-10-21T22:06:30.691Z,6.07
2022-10-21T22:08:58.967Z,6.30
2022-10-21T22:11:32.394Z,8.50
2022-10-21T22:14:00.434Z,6.50
2022-10-21T22:16:27.703Z,6.60
2022-10-21T22:18:55.109Z,6.30
2022-10-21T22:21:22.754Z,7.53
2022-10-21T22:23:50.333Z,6.87
2022-10-21T22:26:20.727Z,5.80
2022-10-21T22:28:48.085Z,8.67
2022-10-21T22:31:18.963Z,7.67
2022-10-21T22:33:46.705Z,7.67
2022-10-21T22:36:15.196Z,9.23
2022-10-21T22:38:42.753Z,8.37
2022-10-21T22:41:12.517Z,6.60
2022-10-21T22:43:40.610Z,7.53
2022-10-21T22:48:55.324Z,6.47
2022-10-21T22:51:22.828Z,6.80
2022-10-21T22:53:55.215Z,6.73
2022-10-21T22:56:25.903Z,5.90
2022-10-21T22:58:53.483Z,8.80
2022-10-21T23:01:20.947Z,7.87
2022-10-21T23:03:48.284Z,7.63
2022-10-21T23:06:15.727Z,6.83
2022-10-21T23:08:42.938Z,6.30
2022-10-21T23:11:10.219Z,7.30
2022-10-21T23:13:37.557Z,9.13
2022-10-21T23:16:05.247Z,6.37
2022-10-21T23:18:32.639Z,8.40
2022-10-21T23:20:59.770Z,8.23
2022-10-21T23:23:27.029Z,7.90
2022-10-21T23:25:54.197Z,7.97
2022-10-21T23:28:21.396Z,6.70
2022-10-21T23:30:48.902Z,7.90
2022-10-21T23:33:16.154Z,6.93
2022-10-21T23:35:43.282Z,7.60
2022-10-21T23:38:10.492Z,9.03
2022-10-21T23:40:37.661Z,7.70
2022-10-21T23:43:05.105Z,8.33
2022-10-21T23:45:32.550Z,6.87
2022-10-21T23:47:59.930Z,5.97
2022-10-21T23:50:27.853Z,7.20
2022-10-21T23:52:55.123Z,7.40
2022-10-21T23:55:22.381Z,7.07
2022-10-21T23:57:50.341Z,6.10
